createdAt,value
2022-10-03T00:02:25.217Z,13.50
2022-10-03T00:05:23.374Z,13.40
2022-10-03T00:08:12.865Z,13.40
2022-10-03T00:11:06.817Z,13.50
2022-10-03T00:13:45.558Z,13.40
2022-10-03T00:17:07.589Z,13.40
2022-10-03T00:19:47.424Z,13.40
2022-10-03T00:22:37.344Z,13.40
2022-10-03T00:25:24.722Z,13.30
2022-10-03T00:28:15.587Z,13.30
2022-10-03T00:31:19.105Z,13.40
2022-10-03T00:34:11.756Z,13.20
2022-10-03T00:36:51.912Z,13.30
2022-10-03T00:39:44.833Z,13.30
2022-10-03T00:42:47.395Z,13.40
2022-10-03T00:46:04.804Z,13.30
2022-10-03T00:49:12.963Z,13.30
2022-10-03T00:52:04.424Z,13.30
2022-10-03T00:54:48.578Z,13.30
2022-10-03T00:57:37.736Z,13.30
2022-10-03T01:00:19.644Z,13.30
2022-10-03T01:03:07.615Z,13.20
2022-10-03T01:05:49.019Z,13.20
2022-10-03T01:08:49.346Z,13.20
2022-10-03T01:11:31.342Z,13.20
2022-10-03T01:14:37.008Z,13.10
2022-10-03T01:17:25.326Z,13.10
2022-10-03T01:20:22.262Z,13.10
2022-10-03T01:23:20.731Z,13.30
2022-10-03T01:26:07.432Z,13.30
2022-10-03T01:29:15.569Z,13.30
2022-10-03T01:31:59.981Z,13.20
2022-10-03T01:34:34.972Z,13.30
2022-10-03T01:37:17.173Z,13.10
2022-10-03T01:39:54.721Z,13.10
2022-10-03T01:42:44.591Z,13.00
2022-10-03T01:45:30.171Z,13.00
2022-10-03T01:48:09.367Z,13.00
2022-10-03T01:50:52.267Z,13.10
2022-10-03T01:53:42.218Z,13.00
2022-10-03T01:56:20.822Z,13.00
2022-10-03T01:59:08.659Z,13.10
2022-10-03T02:01:51.874Z,12.90
2022-10-03T02:04:38.968Z,12.90
2022-10-03T02:07:18.145Z,12.80
2022-10-03T02:10:01.988Z,12.80
2022-10-03T02:12:38.424Z,12.90
2022-10-03T02:15:17.438Z,12.90
2022-10-03T02:17:56.054Z,12.90
2022-10-03T02:20:38.472Z,12.90
2022-10-03T02:23:31.696Z,12.90
2022-10-03T02:26:13.973Z,12.90
2022-10-03T02:29:11.821Z,12.90
2022-10-03T02:32:14.719Z,12.90
2022-10-03T02:35:27.820Z,12.80
2022-10-03T02:38:15.743Z,12.80
2022-10-03T02:41:21.907Z,12.90
2022-10-03T02:44:27.866Z,12.90
2022-10-03T02:47:36.704Z,12.90
2022-10-03T02:50:46.376Z,12.70
2022-10-03T02:54:14.525Z,12.70
2022-10-03T02:57:11.891Z,12.80
2022-10-03T03:00:07.857Z,12.70
2022-10-03T03:03:16.100Z,12.80
2022-10-03T03:06:13.893Z,12.80
2022-10-03T03:09:27.994Z,12.60
2022-10-03T03:12:41.269Z,12.70
2022-10-03T03:16:07.005Z,12.70
2022-10-03T03:18:40.809Z,12.70
2022-10-03T03:21:26.324Z,12.70
2022-10-03T03:24:33.920Z,12.70
2022-10-03T03:27:22.571Z,12.70
2022-10-03T03:30:01.012Z,12.70
2022-10-03T03:32:48.220Z,12.70
2022-10-03T03:35:42.057Z,12.70
2022-10-03T03:38:26.633Z,12.70
2022-10-03T03:41:22.739Z,12.60
2022-10-03T03:44:22.937Z,12.60
2022-10-03T03:47:15.549Z,12.60
2022-10-03T03:50:11.518Z,12.50
2022-10-03T03:52:58.164Z,12.60
2022-10-03T03:55:40.801Z,12.60
2022-10-03T03:58:42.157Z,12.60
2022-10-03T04:01:46.183Z,12.60
2022-10-03T04:04:31.354Z,12.40
2022-10-03T04:07:21.842Z,12.50
2022-10-03T04:10:21.334Z,12.50
2022-10-03T04:13:26.495Z,12.50
2022-10-03T04:16:45.747Z,12.50
2022-10-03T04:19:29.070Z,12.60
2022-10-03T04:22:45.407Z,12.50
2022-10-03T04:25:32.053Z,12.60
2022-10-03T04:28:34.710Z,12.60
2022-10-03T04:31:31.093Z,12.60
2022-10-03T04:34:25.452Z,12.60
2022-10-03T04:37:25.592Z,12.50
2022-10-03T04:40:11.275Z,12.70
2022-10-03T04:42:55.731Z,12.60
2022-10-03T04:46:03.260Z,12.50
2022-10-03T04:48:49.381Z,12.60
2022-10-03T04:51:25.769Z,12.60
2022-10-03T04:54:05.147Z,12.60
2022-10-03T04:56:57.461Z,12.60
2022-10-03T04:59:43.791Z,12.80
2022-10-03T05:02:29.821Z,12.60
2022-10-03T05:05:56.928Z,12.80
2022-10-03T05:08:44.652Z,12.80
2022-10-03T05:11:25.414Z,12.90
2022-10-03T05:14:09.332Z,12.80
2022-10-03T05:16:46.682Z,12.80
2022-10-03T05:19:57.310Z,12.80
2022-10-03T05:22:41.393Z,12.80
2022-10-03T05:25:46.272Z,12.80
2022-10-03T05:28:27.233Z,12.80
2022-10-03T05:31:05.273Z,12.80
2022-10-03T05:33:46.102Z,12.80
2022-10-03T05:36:24.521Z,12.70
2022-10-03T05:39:39.953Z,12.70
2022-10-03T05:42:37.782Z,12.70
2022-10-03T05:45:24.536Z,12.80
2022-10-03T05:48:11.133Z,12.70
2022-10-03T05:54:43.931Z,12.80
2022-10-03T05:57:39.463Z,12.80
2022-10-03T06:00:54.982Z,12.70
2022-10-03T06:04:05.732Z,12.80
2022-10-03T06:06:58.720Z,12.80
2022-10-03T06:10:16.562Z,12.80
2022-10-03T06:13:06.191Z,12.80
2022-10-03T06:15:58.028Z,12.80
2022-10-03T06:18:52.509Z,12.80
2022-10-03T06:22:18.231Z,12.80
2022-10-03T06:25:42.879Z,12.80
2022-10-03T06:28:48.824Z,12.90
2022-10-03T06:32:07.050Z,12.90
2022-10-03T06:35:49.777Z,12.90
2022-10-03T06:39:12.844Z,13.00
2022-10-03T06:42:49.822Z,13.00
2022-10-03T06:45:59.510Z,13.10
2022-10-03T06:49:03.713Z,13.10
2022-10-03T06:52:16.413Z,13.20
2022-10-03T06:55:18.986Z,13.30
2022-10-03T06:58:39.970Z,13.30
2022-10-03T07:01:51.990Z,13.30
2022-10-03T07:05:00.620Z,13.40
2022-10-03T07:08:16.742Z,13.50
2022-10-03T07:11:15.769Z,13.50
2022-10-03T07:14:20.353Z,13.50
2022-10-03T07:17:31.289Z,13.50
2022-10-03T07:20:45.373Z,13.60
2022-10-03T07:23:44.584Z,13.70
2022-10-03T07:27:17.818Z,13.80
2022-10-03T07:30:12.388Z,13.90
2022-10-03T07:33:30.340Z,14.00
2022-10-03T07:36:50.274Z,14.10
2022-10-03T07:40:02.760Z,14.20
2022-10-03T07:43:02.458Z,14.20
2022-10-03T07:45:50.075Z,14.30
2022-10-03T07:48:57.002Z,14.30
2022-10-03T07:51:38.614Z,14.30
2022-10-03T07:55:06.547Z,14.40
2022-10-03T07:58:04.316Z,14.50
2022-10-03T08:00:55.390Z,14.50
2022-10-03T08:04:21.749Z,14.60
2022-10-03T08:07:07.810Z,14.70
2022-10-03T08:09:59.296Z,14.60
2022-10-03T08:13:05.340Z,14.60
2022-10-03T08:16:02.813Z,14.80
2022-10-03T08:19:10.947Z,14.90
2022-10-03T08:22:06.615Z,14.80
2022-10-03T08:25:15.369Z,14.90
2022-10-03T08:28:31.759Z,14.90
2022-10-03T08:31:35.505Z,15.00
2022-10-03T08:34:45.675Z,15.00
2022-10-03T08:37:55.373Z,15.10
2022-10-03T08:41:07.824Z,15.10
2022-10-03T08:44:39.426Z,15.10
2022-10-03T08:48:10.675Z,15.10
2022-10-03T08:51:19.079Z,15.20
2022-10-03T08:54:37.068Z,15.30
2022-10-03T08:58:16.865Z,15.30
2022-10-03T09:01:23.841Z,15.20
2022-10-03T09:04:30.119Z,15.40
2022-10-03T09:07:25.808Z,15.40
2022-10-03T09:10:43.717Z,15.30
2022-10-03T09:14:21.344Z,15.50
2022-10-03T09:17:25.901Z,15.50
2022-10-03T09:23:58.090Z,15.60
2022-10-03T09:27:06.624Z,15.60
2022-10-03T09:30:12.632Z,15.60
2022-10-03T09:33:23.052Z,15.60
2022-10-03T09:36:27.975Z,15.50
2022-10-03T09:39:26.297Z,15.50
2022-10-03T09:42:44.967Z,15.50
2022-10-03T09:45:50.075Z,15.50
2022-10-03T09:49:15.781Z,15.60
2022-10-03T09:52:13.661Z,15.60
2022-10-03T09:55:10.827Z,15.60
2022-10-03T09:58:12.838Z,15.60
2022-10-03T10:01:15.865Z,15.60
2022-10-03T10:04:56.583Z,15.60
2022-10-03T10:08:12.214Z,15.60
2022-10-03T10:11:09.780Z,15.70
2022-10-03T10:14:17.252Z,15.70
2022-10-03T10:17:22.056Z,15.70
2022-10-03T10:20:11.515Z,15.70
2022-10-03T10:23:28.240Z,15.70
2022-10-03T10:26:43.604Z,15.70
2022-10-03T10:29:52.072Z,15.80
2022-10-03T10:33:02.049Z,15.80
2022-10-03T10:36:21.943Z,15.80
2022-10-03T10:39:41.404Z,15.80
2022-10-03T10:42:50.720Z,15.70
2022-10-03T10:46:02.895Z,15.60
2022-10-03T10:49:40.467Z,15.70
2022-10-03T10:52:46.327Z,15.80
2022-10-03T10:56:09.258Z,16.00
2022-10-03T10:59:34.738Z,16.00
2022-10-03T11:02:43.854Z,16.00
2022-10-03T11:05:57.581Z,16.00
2022-10-03T11:09:10.744Z,15.90
2022-10-03T11:12:30.266Z,16.00
2022-10-03T11:15:53.588Z,16.10
2022-10-03T11:19:01.489Z,16.10
2022-10-03T11:22:12.410Z,16.10
2022-10-03T11:25:36.729Z,16.10
2022-10-03T11:28:49.137Z,16.00
2022-10-03T11:32:21.220Z,16.00
2022-10-03T11:35:43.272Z,16.00
2022-10-03T11:38:26.836Z,15.80
2022-10-03T11:41:10.044Z,15.90
2022-10-03T11:44:26.574Z,16.00
2022-10-03T11:47:16.192Z,15.90
2022-10-03T11:50:22.777Z,15.90
2022-10-03T11:53:23.942Z,15.90
2022-10-03T11:56:03.628Z,15.80
2022-10-03T11:58:52.633Z,15.80
2022-10-03T12:01:38.587Z,15.90
2022-10-03T12:04:17.448Z,15.90
2022-10-03T12:07:18.103Z,16.20
2022-10-03T12:10:14.493Z,16.10
2022-10-03T12:12:50.199Z,16.00
2022-10-03T12:15:35.781Z,16.00
2022-10-03T12:18:11.949Z,16.00
2022-10-03T12:21:20.953Z,16.00
2022-10-03T12:24:03.113Z,15.90
2022-10-03T12:26:57.226Z,15.90
2022-10-03T12:29:32.760Z,15.90
2022-10-03T12:32:14.901Z,15.90
2022-10-03T12:35:04.955Z,15.90
2022-10-03T12:37:53.343Z,16.00
2022-10-03T12:40:33.689Z,16.00
2022-10-03T12:46:25.435Z,16.00
2022-10-03T12:49:07.478Z,15.90
2022-10-03T12:51:55.572Z,16.10
2022-10-03T12:54:53.363Z,16.10
2022-10-03T12:58:03.959Z,16.10
2022-10-03T13:00:46.486Z,16.20
2022-10-03T13:03:38.948Z,16.20
2022-10-03T13:07:02.182Z,16.20
2022-10-03T13:10:05.287Z,16.30
2022-10-03T13:12:45.851Z,16.10
2022-10-03T13:15:59.467Z,16.10
2022-10-03T13:18:57.091Z,16.10
2022-10-03T13:21:46.218Z,16.10
2022-10-03T13:24:28.527Z,16.10
2022-10-03T13:27:22.250Z,16.10
2022-10-03T13:29:59.082Z,16.10
2022-10-03T13:32:46.354Z,16.10
2022-10-03T13:36:03.508Z,16.10
2022-10-03T13:39:05.588Z,16.10
2022-10-03T13:41:59.960Z,16.10
2022-10-03T13:44:50.116Z,16.10
2022-10-03T13:47:30.513Z,16.00
2022-10-03T13:50:06.683Z,16.10
2022-10-03T13:52:56.026Z,16.00
2022-10-03T13:55:38.709Z,16.00
2022-10-03T13:58:46.254Z,16.00
2022-10-03T14:01:43.335Z,16.00
2022-10-03T14:05:05.774Z,16.00
2022-10-03T14:07:51.357Z,16.10
2022-10-03T14:11:03.289Z,16.00
2022-10-03T14:13:52.670Z,16.10
2022-10-03T14:16:32.284Z,16.00
2022-10-03T14:19:13.000Z,16.00
2022-10-03T14:22:04.171Z,16.10
2022-10-03T14:25:13.316Z,16.00
2022-10-03T14:27:58.609Z,16.00
2022-10-03T14:30:58.531Z,16.00
2022-10-03T14:33:41.158Z,16.10
2022-10-03T14:36:26.473Z,16.00
2022-10-03T14:39:24.134Z,16.00
2022-10-03T14:42:28.529Z,16.00
2022-10-03T14:45:19.264Z,15.90
2022-10-03T14:47:56.987Z,16.00
2022-10-03T14:50:31.236Z,16.00
2022-10-03T14:53:06.937Z,16.00
2022-10-03T14:55:48.554Z,16.00
2022-10-03T14:58:23.199Z,16.10
2022-10-03T15:01:08.269Z,16.00
2022-10-03T15:03:40.784Z,16.00
2022-10-03T15:07:02.221Z,16.30
2022-10-03T15:09:43.450Z,16.00
2022-10-03T15:12:52.838Z,16.00
2022-10-03T15:15:56.381Z,16.00
2022-10-03T15:18:37.708Z,16.00
2022-10-03T15:21:18.653Z,16.00
2022-10-03T15:23:56.915Z,16.00
2022-10-03T15:26:31.090Z,16.50
2022-10-03T15:29:07.759Z,16.00
2022-10-03T15:31:46.670Z,16.20
2022-10-03T15:34:30.111Z,16.00
2022-10-03T15:37:11.403Z,16.10
2022-10-03T15:39:46.053Z,16.00
2022-10-03T15:42:30.886Z,16.10
2022-10-03T15:45:06.882Z,16.00
2022-10-03T15:47:56.043Z,16.00
2022-10-03T15:50:34.067Z,16.10
2022-10-03T15:53:35.136Z,16.00
2022-10-03T15:56:28.472Z,16.40
2022-10-03T15:59:12.091Z,16.00
2022-10-03T16:01:47.446Z,16.30
2022-10-03T16:04:21.316Z,16.00
2022-10-03T16:07:06.369Z,15.90
2022-10-03T16:13:02.023Z,16.20
2022-10-03T16:15:55.032Z,15.90
2022-10-03T16:18:57.735Z,15.90
2022-10-03T16:21:56.302Z,15.80
2022-10-03T16:24:43.302Z,15.80
2022-10-03T16:27:21.527Z,15.80
2022-10-03T16:29:58.997Z,15.80
2022-10-03T16:32:32.920Z,15.70
2022-10-03T16:35:23.297Z,15.70
2022-10-03T16:37:54.025Z,15.70
2022-10-03T16:40:30.873Z,15.70
2022-10-03T16:43:11.645Z,15.60
2022-10-03T16:45:48.116Z,15.60
2022-10-03T16:48:45.385Z,15.50
2022-10-03T16:51:23.185Z,15.50
2022-10-03T16:53:55.468Z,15.40
2022-10-03T16:56:36.354Z,15.50
2022-10-03T16:59:13.005Z,15.30
2022-10-03T17:01:50.525Z,15.30
2022-10-03T17:04:33.522Z,15.30
2022-10-03T17:07:08.893Z,15.30
2022-10-03T17:09:49.317Z,15.20
2022-10-03T17:12:26.773Z,15.10
2022-10-03T17:14:59.147Z,15.10
2022-10-03T17:17:48.149Z,15.20
2022-10-03T17:20:20.035Z,15.10
2022-10-03T17:23:02.373Z,15.10
2022-10-03T17:25:43.681Z,15.10
2022-10-03T17:28:35.079Z,15.00
2022-10-03T17:31:27.522Z,15.00
2022-10-03T17:34:09.119Z,15.00
2022-10-03T17:37:00.514Z,15.00
2022-10-03T17:39:48.400Z,15.20
2022-10-03T17:42:40.991Z,14.90
2022-10-03T17:45:37.420Z,14.90
2022-10-03T17:48:13.429Z,14.90
2022-10-03T17:51:04.644Z,14.70
2022-10-03T17:53:38.256Z,14.80
2022-10-03T17:56:14.345Z,15.00
2022-10-03T17:58:51.130Z,14.90
2022-10-03T18:01:31.617Z,14.80
2022-10-03T18:04:07.334Z,14.90
2022-10-03T18:06:59.718Z,14.70
2022-10-03T18:09:40.568Z,14.60
2022-10-03T18:12:22.614Z,14.60
2022-10-03T18:15:20.094Z,14.60
2022-10-03T18:18:04.946Z,14.60
2022-10-03T18:21:14.213Z,14.60
2022-10-03T18:24:00.304Z,14.60
2022-10-03T18:26:39.825Z,14.60
2022-10-03T18:29:20.870Z,14.60
2022-10-03T18:31:55.637Z,14.70
2022-10-03T18:34:41.902Z,14.60
2022-10-03T18:37:40.747Z,14.60
2022-10-03T18:40:26.957Z,14.60
2022-10-03T18:43:03.990Z,14.60
2022-10-03T18:45:41.733Z,14.60
2022-10-03T18:48:23.073Z,14.40
2022-10-03T18:51:16.157Z,14.30
2022-10-03T18:53:56.684Z,14.20
2022-10-03T18:56:27.993Z,14.10
2022-10-03T18:59:39.992Z,13.80
2022-10-03T19:02:23.011Z,14.00
2022-10-03T19:05:00.620Z,14.10
2022-10-03T19:07:41.664Z,14.20
2022-10-03T19:10:33.246Z,14.20
2022-10-03T19:13:09.442Z,14.20
2022-10-03T19:16:17.046Z,14.20
2022-10-03T19:19:13.209Z,14.20
2022-10-03T19:21:48.307Z,14.20
2022-10-03T19:24:53.377Z,14.10
2022-10-03T19:27:30.013Z,13.90
2022-10-03T19:30:09.278Z,13.90
2022-10-03T19:33:15.775Z,13.90
2022-10-03T19:35:51.206Z,13.90
2022-10-03T19:38:27.719Z,14.00
2022-10-03T19:41:08.161Z,13.90
2022-10-03T19:43:44.045Z,13.70
2022-10-03T19:46:50.420Z,13.70
2022-10-03T19:49:56.915Z,13.60
2022-10-03T19:52:30.835Z,13.60
2022-10-03T19:55:15.113Z,13.70
2022-10-03T19:57:59.133Z,13.60
2022-10-03T20:00:39.975Z,13.70
2022-10-03T20:03:17.742Z,13.70
2022-10-03T20:06:15.991Z,13.70
2022-10-03T20:08:53.069Z,13.60
2022-10-03T20:11:52.988Z,13.60
2022-10-03T20:14:29.276Z,13.60
2022-10-03T20:17:12.273Z,13.70
2022-10-03T20:19:54.827Z,13.70
2022-10-03T20:22:29.097Z,13.30
2022-10-03T20:25:07.220Z,13.70
2022-10-03T20:27:48.794Z,13.60
2022-10-03T20:30:29.637Z,13.50
2022-10-03T20:33:05.416Z,13.50
2022-10-03T20:36:08.886Z,13.60
2022-10-03T20:38:58.219Z,13.60
2022-10-03T20:41:45.720Z,13.60
2022-10-03T20:44:32.800Z,13.60
2022-10-03T20:47:39.141Z,13.50
2022-10-03T20:50:16.886Z,13.50
2022-10-03T20:52:56.968Z,13.50
2022-10-03T20:55:33.759Z,13.40
2022-10-03T20:58:35.561Z,13.40
2022-10-03T21:01:12.712Z,13.60
2022-10-03T21:04:04.247Z,13.60
2022-10-03T21:06:39.173Z,13.50
2022-10-03T21:09:22.605Z,13.40
2022-10-03T21:11:54.712Z,13.30
2022-10-03T21:14:30.855Z,13.30
2022-10-03T21:17:01.047Z,13.30
2022-10-03T21:19:48.349Z,13.20
2022-10-03T21:22:20.740Z,13.20
2022-10-03T21:24:59.471Z,13.30
2022-10-03T21:27:31.310Z,13.50
2022-10-03T21:30:04.228Z,13.40
2022-10-03T21:32:52.370Z,13.40
2022-10-03T21:35:35.023Z,13.30
2022-10-03T21:38:15.866Z,13.30
2022-10-03T21:41:26.349Z,13.20
2022-10-03T21:44:03.941Z,13.30
2022-10-03T21:46:43.195Z,13.40
2022-10-03T21:49:48.869Z,13.60
2022-10-03T21:52:44.573Z,13.30
2022-10-03T21:55:51.853Z,13.30
2022-10-03T21:58:49.933Z,13.20
2022-10-03T22:01:30.663Z,13.10
2022-10-03T22:04:06.766Z,13.10
2022-10-03T22:06:41.140Z,13.00
2022-10-03T22:09:17.548Z,13.00
2022-10-03T22:11:56.249Z,13.00
2022-10-03T22:14:38.228Z,13.00
2022-10-03T22:17:20.351Z,13.00
2022-10-03T22:20:09.133Z,13.00
2022-10-03T22:22:53.478Z,13.10
2022-10-03T22:25:38.998Z,13.20
2022-10-03T22:28:20.534Z,13.30
2022-10-03T22:31:04.294Z,13.30
2022-10-03T22:33:53.400Z,13.30
2022-10-03T22:36:29.918Z,13.20
2022-10-03T22:39:11.353Z,13.30
2022-10-03T22:41:49.855Z,13.20
2022-10-03T22:44:28.503Z,13.30
2022-10-03T22:47:04.103Z,13.20
2022-10-03T22:49:41.495Z,13.10
2022-10-03T22:52:18.596Z,13.00
2022-10-03T22:54:51.991Z,13.10
2022-10-03T22:57:36.017Z,13.20
2022-10-03T23:00:12.613Z,13.10
2022-10-03T23:02:47.454Z,13.00
2022-10-03T23:05:27.523Z,12.90
2022-10-03T23:08:11.313Z,12.90
2022-10-03T23:10:51.987Z,13.00
2022-10-03T23:13:44.322Z,13.00
2022-10-03T23:16:29.852Z,13.00
2022-10-03T23:19:26.419Z,12.80
2022-10-03T23:21:59.731Z,12.70
2022-10-03T23:24:33.718Z,12.70
2022-10-03T23:27:44.307Z,12.90
2022-10-03T23:30:53.624Z,12.90
2022-10-03T23:33:54.031Z,12.80
2022-10-03T23:36:25.705Z,12.70
2022-10-03T23:39:09.868Z,12.80
2022-10-03T23:41:56.638Z,12.90
2022-10-03T23:44:50.950Z,12.80
2022-10-03T23:47:29.023Z,12.70
2022-10-03T23:50:04.716Z,12.70
2022-10-03T23:52:48.165Z,12.70
2022-10-03T23:55:26.181Z,12.70
2022-10-03T23:57:55.295Z,12.70
